Time;durP1;ratioP1;P1;durP2;ratioP2;P2;SDS_P1;SDS_P2;PMS_P1;PMS_P2;Temp;Humidity;BMP_temperature;BMP_pressure;BME280_temperature;BME280_humidity;BME280_pressure;Samples;Min_cycle;Max_cycle;Signal;HPM_P1;HPM_P2
2023/03/31 00:00:35;;;;;;;29.00;15.60;;;;;;;7.68;90.30;97827.23;104842;1262;98322;-65
2023/03/31 00:03:08;;;;;;;23.00;13.40;;;;;;;7.67;89.96;97827.70;104913;1257;99117;-65
2023/03/31 00:05:36;;;;;;;29.80;15.70;;;;;;;7.63;90.48;97830.34;104903;1264;99176;-65
2023/03/31 00:08:04;;;;;;;23.50;13.90;;;;;;;7.61;90.37;97829.83;104659;1260;107696;-65
2023/03/31 00:10:33;;;;;;;28.60;16.40;;;;;;;7.57;90.61;97828.63;104619;1273;98008;-65
2023/03/31 00:13:01;;;;;;;24.20;13.80;;;;;;;7.52;90.46;97823.81;104871;1257;98540;-66
2023/03/31 00:15:29;;;;;;;28.80;16.70;;;;;;;7.49;90.60;97821.93;104457;1266;111835;-66
2023/03/31 00:17:59;;;;;;;23.90;13.40;;;;;;;7.46;90.69;97816.68;104856;1258;99136;-66
2023/03/31 00:20:27;;;;;;;25.70;15.20;;;;;;;7.45;90.72;97819.77;104741;1273;107968;-66
2023/03/31 00:22:56;;;;;;;25.00;14.70;;;;;;;7.44;90.45;97825.42;104788;1272;97916;-66
2023/03/31 00:25:23;;;;;;;21.30;13.60;;;;;;;7.44;90.68;97825.10;104610;1272;98418;-66
2023/03/31 00:27:51;;;;;;;22.20;13.90;;;;;;;7.43;90.65;97823.91;104542;1265;111235;-66
2023/03/31 00:30:19;;;;;;;25.00;13.70;;;;;;;7.42;90.80;97824.39;104585;1259;98247;-67
2023/03/31 00:32:46;;;;;;;18.70;11.20;;;;;;;7.41;90.46;97823.58;104841;1264;108581;-66
2023/03/31 00:35:13;;;;;;;21.80;13.20;;;;;;;7.41;90.69;97821.56;104770;1264;97921;-65
2023/03/31 00:37:42;;;;;;;21.70;13.70;;;;;;;7.41;90.47;97820.38;104816;1257;97891;-65
2023/03/31 00:40:09;;;;;;;17.30;11.50;;;;;;;7.39;90.17;97820.45;104871;1274;112001;-65
2023/03/31 00:42:40;;;;;;;17.40;10.10;;;;;;;7.39;90.65;97818.19;104893;1261;98798;-65
2023/03/31 00:45:13;;;;;;;20.30;12.20;;;;;;;7.38;90.18;97819.79;104830;1264;108556;-65
2023/03/31 00:47:52;;;;;;;23.10;13.70;;;;;;;7.37;90.18;97822.70;104853;1264;98691;-66
2023/03/31 00:50:22;;;;;;;19.50;12.90;;;;;;;7.36;90.88;97825.73;104843;1265;99209;-65
2023/03/31 00:52:58;;;;;;;17.40;10.60;;;;;;;7.34;90.64;97821.20;104853;1263;111845;-65
2023/03/31 00:55:41;;;;;;;23.90;12.80;;;;;;;7.32;91.13;97820.00;104733;1259;99189;-65
2023/03/31 00:58:13;;;;;;;20.00;12.30;;;;;;;7.29;90.78;97821.89;104514;1265;108123;-65
2023/03/31 01:00:41;;;;;;;20.80;12.90;;;;;;;7.27;91.05;97819.17;104816;1264;97914;-64
2023/03/31 01:03:09;;;;;;;19.20;11.50;;;;;;;7.26;91.66;97811.02;104535;1274;98312;-65
2023/03/31 01:05:48;;;;;;;16.70;10.20;;;;;;;7.28;91.30;97812.34;104443;1271;112867;-65
2023/03/31 01:08:23;;;;;;;15.00;10.30;;;;;;;7.29;91.70;97810.92;104526;1259;98759;-68
2023/03/31 01:10:54;;;;;;;16.80;10.30;;;;;;;7.30;91.40;97811.92;104579;1258;108437;-66
2023/03/31 01:13:23;;;;;;;22.90;13.00;;;;;;;7.32;91.20;97804.59;104572;1261;98203;-66
2023/03/31 01:15:50;;;;;;;18.30;10.90;;;;;;;7.33;91.34;97810.16;104692;1259;98338;-66
2023/03/31 01:18:20;;;;;;;16.30;10.50;;;;;;;7.33;91.03;97806.67;104850;1276;97907;-66
2023/03/31 01:21:09;;;;;;;14.40;9.70;;;;;;;7.35;91.37;97810.98;104677;1264;99291;-66
2023/03/31 01:24:08;;;;;;;18.30;9.30;;;;;;;7.38;91.46;97810.35;104474;1265;108124;-67
2023/03/31 01:27:07;;;;;;;22.80;12.30;;;;;;;7.41;91.41;97812.52;104775;1272;97936;-65
2023/03/31 01:29:54;;;;;;;16.90;9.70;;;;;;;7.44;91.26;97814.61;104843;1263;98405;-65
2023/03/31 01:32:46;;;;;;;20.50;10.70;;;;;;;7.47;91.39;97810.71;104468;1259;111886;-65
2023/03/31 01:35:43;;;;;;;18.10;9.90;;;;;;;7.50;91.09;97813.36;104549;1258;99208;-66
2023/03/31 01:38:31;;;;;;;19.30;9.20;;;;;;;7.50;90.89;97815.44;104819;1257;108247;-65
2023/03/31 01:41:07;;;;;;;13.50;8.50;;;;;;;7.49;90.95;97813.83;104600;1267;97911;-66
2023/03/31 01:43:59;;;;;;;17.20;10.40;;;;;;;7.46;91.13;97810.09;104560;1264;98593;-66
2023/03/31 01:46:45;;;;;;;23.10;11.60;;;;;;;7.44;91.00;97807.88;104453;1266;111758;-66
2023/03/31 01:49:34;;;;;;;18.00;9.80;;;;;;;7.43;91.05;97811.27;104507;1266;99563;-66
2023/03/31 01:52:11;;;;;;;12.10;7.40;;;;;;;7.44;91.02;97809.06;104884;1261;108502;-66
2023/03/31 01:54:45;;;;;;;13.50;8.20;;;;;;;7.43;90.94;97811.21;104802;1260;98815;-66
2023/03/31 01:57:19;;;;;;;13.00;7.70;;;;;;;7.43;90.84;97807.94;104674;1261;98402;-66
2023/03/31 01:59:58;;;;;;;16.90;10.80;;;;;;;7.45;90.98;97803.27;104456;1274;111531;-66
2023/03/31 02:02:36;;;;;;;15.30;9.20;;;;;;;7.46;90.76;97804.49;104632;1273;98893;-66
2023/03/31 02:05:12;;;;;;;16.10;9.00;;;;;;;7.45;90.40;97806.08;104845;1261;108206;-66
2023/03/31 02:07:51;;;;;;;14.10;8.90;;;;;;;7.44;90.64;97798.98;104788;1263;98900;-66
2023/03/31 02:10:21;;;;;;;15.30;8.30;;;;;;;7.45;90.62;97802.49;104762;1261;99107;-66
2023/03/31 02:12:50;;;;;;;10.50;6.70;;;;;;;7.44;90.42;97797.07;104580;1266;111152;-67
2023/03/31 02:15:26;;;;;;;15.00;8.50;;;;;;;7.43;90.30;97795.84;104620;1268;98511;-67
2023/03/31 02:17:58;;;;;;;12.20;7.30;;;;;;;7.41;90.49;97793.37;104590;1264;109649;-66
2023/03/31 02:20:28;;;;;;;10.70;6.60;;;;;;;7.38;90.59;97795.86;104699;1263;97906;-66
2023/03/31 02:22:56;;;;;;;13.60;7.80;;;;;;;7.35;90.49;97791.91;104984;1273;98072;-66
2023/03/31 02:25:35;;;;;;;13.30;8.20;;;;;;;7.33;90.69;97786.56;104697;1257;112370;-65
2023/03/31 02:28:08;;;;;;;14.60;8.40;;;;;;;7.32;90.89;97787.77;104783;1261;99341;-66
2023/03/31 02:30:48;;;;;;;11.90;7.30;;;;;;;7.33;90.46;97785.95;104871;1263;108718;-65
2023/03/31 02:33:15;;;;;;;7.40;5.10;;;;;;;7.31;90.51;97778.54;104920;1279;97914;-69
2023/03/31 02:35:42;;;;;;;9.50;4.60;;;;;;;7.31;90.42;97785.29;104779;1262;98421;-66
2023/03/31 02:38:10;;;;;;;10.20;6.70;;;;;;;7.29;90.20;97783.18;104954;1261;98797;-66
2023/03/31 02:40:37;;;;;;;8.60;4.70;;;;;;;7.26;89.98;97783.77;104560;1273;563388;-66
2023/03/31 02:43:05;;;;;;;12.10;7.30;;;;;;;7.26;90.19;97784.60;104961;1260;97845;-66
2023/03/31 02:45:43;;;;;;;7.80;4.40;;;;;;;7.25;90.17;97779.95;104916;1260;98700;-65
2023/03/31 02:48:27;;;;;;;11.80;6.50;;;;;;;7.24;90.00;97777.25;104639;1266;99197;-66
2023/03/31 02:51:42;;;;;;;10.40;6.40;;;;;;;7.24;90.05;97779.44;104971;1260;112454;-66
2023/03/31 02:54:28;;;;;;;15.10;6.80;;;;;;;7.23;90.07;97777.28;104492;1267;99161;-66
2023/03/31 02:57:01;;;;;;;10.20;5.50;;;;;;;7.22;90.18;97779.81;104206;1268;108093;-66
2023/03/31 02:59:56;;;;;;;15.10;7.90;;;;;;;7.20;89.82;97776.48;104166;1274;98619;-66
2023/03/31 03:03:01;;;;;;;11.40;6.00;;;;;;;7.19;89.78;97772.88;104470;1276;98361;-66
2023/03/31 03:05:57;;;;;;;18.00;9.50;;;;;;;7.15;90.04;97766.02;104201;1270;113150;-66
2023/03/31 03:08:35;;;;;;;16.40;9.10;;;;;;;7.13;90.05;97764.98;104351;1282;98257;-66
2023/03/31 03:11:24;;;;;;;12.40;5.60;;;;;;;7.10;90.29;97759.08;104201;1269;108131;-65
2023/03/31 03:14:30;;;;;;;13.20;7.30;;;;;;;7.09;90.23;97758.78;104253;1267;98295;-65
2023/03/31 03:17:03;;;;;;;14.90;9.10;;;;;;;7.07;90.25;97754.92;104332;1281;98623;-65
2023/03/31 03:19:30;;;;;;;13.40;7.40;;;;;;;7.05;90.36;97754.38;104276;1268;111314;-65
2023/03/31 03:21:57;;;;;;;14.60;8.70;;;;;;;7.01;90.30;97757.40;104340;1268;98027;-66
2023/03/31 03:24:28;;;;;;;11.30;5.70;;;;;;;6.96;90.75;97756.05;104241;1268;98062;-65
2023/03/31 03:26:55;;;;;;;15.70;8.60;;;;;;;6.90;90.86;97757.79;104104;1269;98342;-65
2023/03/31 03:29:22;;;;;;;14.10;8.10;;;;;;;6.86;90.85;97756.48;104330;1266;98179;-65
2023/03/31 03:31:50;;;;;;;15.90;9.60;;;;;;;6.84;90.99;97756.53;104546;1279;98106;-65
2023/03/31 03:34:17;;;;;;;14.30;8.00;;;;;;;6.81;91.17;97755.29;104934;1260;98062;-66
2023/03/31 03:36:46;;;;;;;12.50;5.70;;;;;;;6.80;90.87;97753.63;104849;1264;98719;-65
2023/03/31 03:39:13;;;;;;;8.00;4.60;;;;;;;6.78;90.98;97752.91;104548;1265;97961;-65
2023/03/31 03:41:40;;;;;;;16.30;8.00;;;;;;;6.77;90.96;97750.29;104696;1263;99113;-66
2023/03/31 03:44:07;;;;;;;10.90;6.50;;;;;;;6.77;91.03;97751.52;104852;1261;97904;-66
2023/03/31 03:46:34;;;;;;;10.20;6.00;;;;;;;6.76;91.45;97746.11;104983;1276;97915;-65
2023/03/31 03:49:02;;;;;;;10.40;5.60;;;;;;;6.76;91.08;97742.52;104709;1271;98119;-66
2023/03/31 03:51:29;;;;;;;13.20;6.90;;;;;;;6.74;91.35;97741.97;104883;1257;97895;-66
2023/03/31 03:53:56;;;;;;;11.50;7.00;;;;;;;6.73;90.89;97737.52;104714;1261;97970;-66
2023/03/31 03:56:23;;;;;;;12.70;6.50;;;;;;;6.70;91.59;97734.88;104953;1258;97908;-67
2023/03/31 03:58:51;;;;;;;14.80;8.50;;;;;;;6.68;91.24;97733.07;104987;1279;98100;-66
2023/03/31 04:01:18;;;;;;;18.60;9.60;;;;;;;6.65;91.09;97737.13;104935;1263;98335;-66
2023/03/31 04:03:45;;;;;;;16.50;10.10;;;;;;;6.63;91.34;97738.85;104974;1261;99295;-66
2023/03/31 04:06:12;;;;;;;20.80;11.50;;;;;;;6.61;91.32;97737.34;104974;1272;97899;-65
2023/03/31 04:08:40;;;;;;;20.20;10.90;;;;;;;6.59;90.97;97734.06;104962;1260;99193;-67
2023/03/31 04:11:18;;;;;;;17.00;10.00;;;;;;;6.58;91.17;97730.23;104840;1257;97941;-67
2023/03/31 04:13:46;;;;;;;15.00;9.90;;;;;;;6.57;91.07;97734.77;104599;1268;98097;-67
2023/03/31 04:16:13;;;;;;;17.00;10.10;;;;;;;6.55;91.61;97734.53;104600;1263;99064;-67
2023/03/31 04:18:43;;;;;;;17.20;9.50;;;;;;;6.55;91.57;97730.88;104400;1275;111232;-67
2023/03/31 04:21:14;;;;;;;16.80;10.70;;;;;;;6.54;91.49;97732.16;104560;1264;99087;-67
2023/03/31 04:23:45;;;;;;;13.60;8.20;;;;;;;6.53;91.37;97730.02;104597;1264;108222;-68
2023/03/31 04:26:13;;;;;;;;;;;;;;;6.52;91.76;97734.72;104764;1260;99211;-66
2023/03/31 04:28:45;;;;;;;17.20;8.30;;;;;;;6.50;91.73;97730.25;104935;1263;98401;-68
2023/03/31 04:31:24;;;;;;;19.10;9.70;;;;;;;6.50;91.52;97726.16;104962;1261;112801;-69
2023/03/31 04:33:52;;;;;;;14.30;8.40;;;;;;;6.49;91.63;97722.80;104789;1263;99305;-66
2023/03/31 04:36:20;;;;;;;13.30;7.90;;;;;;;6.49;91.28;97719.05;104489;1264;106324;-67
2023/03/31 04:38:49;;;;;;;15.60;8.00;;;;;;;6.48;91.63;97714.57;104739;1261;97907;-66
2023/03/31 04:41:17;;;;;;;13.20;7.50;;;;;;;6.48;91.76;97715.76;104803;1261;98425;-66
2023/03/31 04:43:44;;;;;;;16.90;7.70;;;;;;;6.49;91.64;97712.95;104818;1262;97918;-66
2023/03/31 04:46:12;;;;;;;12.70;7.30;;;;;;;6.50;91.79;97707.06;104764;1257;97983;-66
2023/03/31 04:48:39;;;;;;;17.00;8.30;;;;;;;6.50;92.21;97702.10;104854;1261;97983;-66
2023/03/31 04:51:07;;;;;;;15.60;8.60;;;;;;;6.52;91.82;97704.23;104824;1272;97880;-66
2023/03/31 04:53:34;;;;;;;13.60;8.00;;;;;;;6.52;91.65;97701.60;104626;1266;99544;-66
2023/03/31 04:56:02;;;;;;;15.00;8.60;;;;;;;6.52;91.82;97695.06;104619;1265;111759;-66
2023/03/31 04:58:30;;;;;;;13.60;7.90;;;;;;;6.54;91.94;97689.00;104824;1262;99277;-66
2023/03/31 05:00:58;;;;;;;19.90;9.20;;;;;;;6.54;91.79;97685.50;104821;1262;98758;-67
2023/03/31 05:03:25;;;;;;;17.80;10.00;;;;;;;6.56;91.79;97687.20;104827;1258;97932;-66
2023/03/31 05:05:53;;;;;;;17.80;9.70;;;;;;;6.57;91.78;97690.39;104625;1264;99097;-65
2023/03/31 05:08:20;;;;;;;24.50;10.50;;;;;;;6.60;91.98;97683.52;104889;1257;97969;-66
2023/03/31 05:10:47;;;;;;;18.60;8.80;;;;;;;6.63;91.85;97680.33;104740;1261;97902;-66
2023/03/31 05:13:14;;;;;;;31.40;13.50;;;;;;;6.66;91.62;97681.67;104677;1272;98026;-70
2023/03/31 05:15:43;;;;;;;42.50;21.90;;;;;;;6.70;91.68;97678.89;104638;1261;97980;-68
2023/03/31 05:18:11;;;;;;;23.20;12.70;;;;;;;6.74;91.55;97674.60;104817;1262;98701;-69
2023/03/31 05:20:38;;;;;;;179.50;64.60;;;;;;;6.78;91.70;97674.65;104831;1259;97993;-67
2023/03/31 05:23:05;;;;;;;347.20;118.00;;;;;;;6.84;91.49;97672.17;104821;1262;99951;-69
2023/03/31 05:25:33;;;;;;;190.60;50.20;;;;;;;6.89;91.35;97671.35;104784;1260;98002;-67
2023/03/31 05:28:00;;;;;;;68.30;23.90;;;;;;;6.94;91.09;97668.78;104814;1261;98832;-66
2023/03/31 05:30:28;;;;;;;42.10;16.10;;;;;;;7.00;91.02;97677.46;104808;1261;97907;-67
2023/03/31 05:32:55;;;;;;;38.60;15.20;;;;;;;7.04;90.82;97678.70;104840;1261;99202;-68
2023/03/31 05:35:23;;;;;;;33.40;14.70;;;;;;;7.09;90.73;97674.39;104702;1265;99110;-67
2023/03/31 05:37:50;;;;;;;36.70;15.40;;;;;;;7.14;90.14;97675.60;104926;1258;97979;-67
2023/03/31 05:40:17;;;;;;;52.40;20.20;;;;;;;7.21;90.09;97672.48;104933;1256;97848;-66
2023/03/31 05:42:44;;;;;;;44.70;20.10;;;;;;;7.27;90.46;97676.27;104970;1258;98041;-67
2023/03/31 05:45:11;;;;;;;20.90;11.20;;;;;;;7.33;89.96;97673.50;104760;1261;97889;-67
2023/03/31 05:47:38;;;;;;;19.50;8.90;;;;;;;7.40;90.16;97678.82;104961;1257;99175;-67
2023/03/31 05:50:07;;;;;;;86.50;25.60;;;;;;;7.44;89.68;97675.96;104971;1261;99180;-66
2023/03/31 05:52:35;;;;;;;51.20;16.40;;;;;;;7.50;89.77;97676.23;104934;1260;97852;-67
2023/03/31 05:55:04;;;;;;;53.90;17.10;;;;;;;7.56;89.97;97674.94;105007;1260;97849;-68
2023/03/31 05:57:31;;;;;;;75.30;22.00;;;;;;;7.62;89.93;97673.77;104881;1279;112180;-67
2023/03/31 05:59:59;;;;;;;44.00;15.70;;;;;;;7.71;89.60;97671.98;104999;1261;97848;-66
2023/03/31 06:02:26;;;;;;;37.00;13.90;;;;;;;7.81;89.24;97669.22;104882;1272;108741;-67
2023/03/31 06:04:54;;;;;;;32.30;11.90;;;;;;;7.92;89.09;97667.02;104794;1262;98898;-69
2023/03/31 06:07:23;;;;;;;54.90;17.90;;;;;;;8.06;88.74;97666.52;104868;1262;99173;-67
2023/03/31 06:09:51;;;;;;;30.40;10.30;;;;;;;8.18;88.52;97668.80;104938;1275;112186;-68
2023/03/31 06:12:19;;;;;;;43.20;14.80;;;;;;;8.33;88.18;97667.15;104931;1263;99195;-67
2023/03/31 06:14:46;;;;;;;41.20;13.70;;;;;;;8.54;88.49;97669.23;104654;1265;107082;-67
2023/03/31 06:17:13;;;;;;;26.30;8.80;;;;;;;8.75;87.53;97671.04;104700;1263;98017;-67
2023/03/31 06:19:40;;;;;;;21.00;7.00;;;;;;;8.94;86.19;97665.02;104654;1263;99193;-67
2023/03/31 06:22:07;;;;;;;21.30;8.70;;;;;;;9.06;85.37;97664.80;104901;1263;97902;-71
2023/03/31 06:24:34;;;;;;;25.20;9.30;;;;;;;9.11;84.73;97663.06;104770;1263;98012;-68
2023/03/31 06:27:02;;;;;;;14.70;6.10;;;;;;;9.11;84.85;97669.08;104847;1261;97901;-68
2023/03/31 06:29:29;;;;;;;15.60;6.50;;;;;;;9.10;84.66;97669.28;104785;1263;99218;-67
2023/03/31 06:31:56;;;;;;;13.80;6.10;;;;;;;9.17;84.46;97671.02;104907;1257;97966;-67
2023/03/31 06:34:24;;;;;;;14.80;5.80;;;;;;;9.26;83.85;97668.10;104698;1271;97903;-68
2023/03/31 06:36:52;;;;;;;14.70;6.90;;;;;;;9.38;83.58;97666.70;104908;1271;98900;-68
2023/03/31 06:39:19;;;;;;;10.60;4.00;;;;;;;9.50;83.33;97662.27;104735;1262;97989;-69
2023/03/31 06:41:46;;;;;;;13.80;5.60;;;;;;;9.62;82.84;97661.35;104878;1263;98456;-68
2023/03/31 06:44:15;;;;;;;16.80;7.40;;;;;;;9.75;82.44;97662.05;104976;1261;97918;-66
2023/03/31 06:46:43;;;;;;;42.40;15.90;;;;;;;9.84;82.00;97659.90;104763;1261;112178;-67
2023/03/31 06:49:11;;;;;;;11.40;6.10;;;;;;;9.96;82.19;97652.83;104975;1263;99097;-67
2023/03/31 06:51:38;;;;;;;11.20;4.70;;;;;;;10.04;81.07;97651.73;104857;1262;97899;-67
2023/03/31 06:54:05;;;;;;;12.90;4.70;;;;;;;10.15;81.17;97652.13;104689;1261;97969;-68
2023/03/31 06:56:33;;;;;;;9.00;4.60;;;;;;;10.28;80.48;97647.95;104808;1260;97905;-67
2023/03/31 06:59:00;;;;;;;21.70;9.10;;;;;;;10.37;79.91;97653.04;104896;1279;97909;-67
2023/03/31 07:01:30;;;;;;;9.40;4.40;;;;;;;10.50;79.87;97655.00;104983;1272;97992;-68
2023/03/31 07:04:01;;;;;;;8.50;4.20;;;;;;;10.57;78.41;97656.80;104915;1261;107615;-67
2023/03/31 07:06:38;;;;;;;9.80;4.50;;;;;;;10.60;78.40;97652.30;104814;1263;97989;-68
2023/03/31 07:09:12;;;;;;;10.50;5.50;;;;;;;10.72;78.20;97654.55;104853;1260;99481;-67
2023/03/31 07:11:42;;;;;;;13.70;5.20;;;;;;;10.79;77.88;97647.52;104587;1265;111260;-66
2023/03/31 07:14:18;;;;;;;11.60;4.90;;;;;;;10.86;77.76;97644.38;104976;1263;98957;-67
2023/03/31 07:16:58;;;;;;;20.10;9.00;;;;;;;10.98;77.37;97641.79;104924;1274;108895;-67
2023/03/31 07:19:36;;;;;;;13.10;9.00;;;;;;;11.11;76.83;97641.66;104916;1263;98392;-67
2023/03/31 07:22:18;;;;;;;10.20;5.20;;;;;;;11.25;76.36;97648.43;104951;1257;99118;-67
2023/03/31 07:24:59;;;;;;;12.80;6.60;;;;;;;11.33;75.23;97651.97;104612;1264;111754;-67
2023/03/31 07:27:26;;;;;;;10.70;4.90;;;;;;;11.36;75.44;97648.84;104601;1266;99162;-67
2023/03/31 07:29:54;;;;;;;16.10;6.60;;;;;;;11.49;75.57;97645.73;104862;1272;97978;-67
2023/03/31 07:32:22;;;;;;;10.60;4.60;;;;;;;11.63;75.01;97641.05;104909;1279;97918;-67
2023/03/31 07:34:51;;;;;;;10.00;4.80;;;;;;;11.76;74.35;97639.70;104998;1263;98300;-68
2023/03/31 07:37:18;;;;;;;13.70;7.10;;;;;;;11.96;74.78;97635.96;104961;1270;97992;-68
2023/03/31 07:39:45;;;;;;;16.90;7.70;;;;;;;12.26;73.70;97634.70;104974;1279;99114;-68
2023/03/31 07:42:13;;;;;;;13.70;5.50;;;;;;;12.48;72.81;97632.77;104914;1261;99295;-68
2023/03/31 07:44:40;;;;;;;7.00;4.00;;;;;;;12.66;72.62;97631.73;104778;1259;99227;-68
2023/03/31 07:47:07;;;;;;;10.40;5.40;;;;;;;12.81;71.87;97630.79;104894;1260;99310;-68
2023/03/31 07:49:35;;;;;;;12.30;5.80;;;;;;;12.93;70.27;97635.95;104822;1258;99109;-68
2023/03/31 07:52:03;;;;;;;13.50;5.90;;;;;;;13.08;70.38;97633.02;104958;1263;98426;-68
2023/03/31 07:54:30;;;;;;;23.80;7.80;;;;;;;13.11;69.71;97625.69;104956;1263;99107;-68
2023/03/31 07:57:00;;;;;;;12.70;5.70;;;;;;;13.11;69.35;97624.98;104855;1263;97970;-69
2023/03/31 07:59:29;;;;;;;17.70;9.80;;;;;;;13.06;69.57;97612.39;104462;1266;99663;-74
2023/03/31 08:01:56;;;;;;;13.10;7.30;;;;;;;13.06;69.61;97609.61;104958;1258;111942;-69
2023/03/31 08:04:23;;;;;;;14.00;6.60;;;;;;;12.93;68.21;97605.07;104981;1263;98003;-69
2023/03/31 08:06:51;;;;;;;13.60;7.00;;;;;;;12.85;68.76;97608.48;104946;1263;97929;-69
2023/03/31 08:09:21;;;;;;;9.50;5.30;;;;;;;12.94;70.20;97596.37;105003;1263;101362;-69
2023/03/31 08:11:48;;;;;;;10.80;4.70;;;;;;;13.17;69.64;97589.37;105015;1260;98394;-68
2023/03/31 08:14:15;;;;;;;13.00;6.10;;;;;;;13.40;69.01;97589.32;104933;1263;112386;-68
2023/03/31 08:16:54;;;;;;;12.00;5.30;;;;;;;13.67;68.43;97592.92;104562;1270;99048;-68
2023/03/31 08:19:21;;;;;;;8.00;4.20;;;;;;;13.89;67.20;97585.50;104926;1261;107742;-68
2023/03/31 08:21:51;;;;;;;11.50;5.00;;;;;;;14.13;67.93;97577.30;104903;1263;97916;-69
2023/03/31 08:24:18;;;;;;;10.60;5.10;;;;;;;14.52;67.36;97571.38;104611;1266;98750;-71
2023/03/31 08:26:46;;;;;;;10.60;5.00;;;;;;;14.79;65.99;97571.63;104876;1261;111930;-70
2023/03/31 08:29:14;;;;;;;6.80;3.30;;;;;;;14.95;65.20;97565.98;104701;1265;98071;-69
2023/03/31 08:31:41;;;;;;;10.30;4.90;;;;;;;15.01;63.95;97556.92;104618;1274;106779;-69
2023/03/31 08:34:09;;;;;;;7.50;4.50;;;;;;;15.18;64.08;97551.64;104665;1268;98729;-69
2023/03/31 08:36:36;;;;;;;10.10;4.40;;;;;;;15.35;62.88;97553.84;104964;1263;97880;-70
2023/03/31 08:39:03;;;;;;;9.80;4.50;;;;;;;15.53;62.84;97549.44;104993;1272;97904;-69
2023/03/31 08:41:57;;;;;;;7.70;2.90;;;;;;;15.83;62.54;97544.92;104968;1261;99218;-69
2023/03/31 08:44:58;;;;;;;9.00;4.30;;;;;;;15.96;59.97;97533.64;104632;1266;107475;-69
2023/03/31 08:47:28;;;;;;;10.10;4.50;;;;;;;15.97;60.04;97527.64;104881;1263;98814;-69
2023/03/31 08:50:10;;;;;;;14.80;4.50;;;;;;;16.20;59.94;97528.61;104924;1262;97822;-68
2023/03/31 08:52:46;;;;;;;10.50;5.10;;;;;;;16.46;59.44;97525.69;104592;1264;111804;-68
2023/03/31 08:55:23;;;;;;;10.30;4.50;;;;;;;16.76;59.82;97524.66;104539;1265;98241;-69
2023/03/31 08:58:13;;;;;;;8.80;4.80;;;;;;;16.92;58.85;97527.39;104805;1261;108541;-69
2023/03/31 09:01:18;;;;;;;13.70;4.70;;;;;;;16.89;58.64;97525.95;104522;1263;97969;-68
2023/03/31 09:04:11;;;;;;;9.40;4.50;;;;;;;16.99;59.89;97517.79;104514;1274;98066;-69
2023/03/31 09:07:07;;;;;;;12.30;8.70;;;;;;;17.38;58.31;97513.63;104839;1263;110935;-68
2023/03/31 09:10:21;;;;;;;9.00;4.30;;;;;;;17.78;57.51;97502.46;104871;1263;99242;-70
2023/03/31 09:13:03;;;;;;;11.90;4.90;;;;;;;18.11;54.31;97494.65;104919;1257;108239;-70
2023/03/31 09:15:38;;;;;;;12.50;5.20;;;;;;;18.22;55.70;97486.26;104648;1270;97957;-68
2023/03/31 09:18:48;;;;;;;5.20;2.60;;;;;;;18.50;54.74;97482.33;104701;1264;99070;-70
2023/03/31 09:21:26;;;;;;;13.00;4.80;;;;;;;18.43;52.29;97481.45;104101;1281;111312;-66
2023/03/31 09:24:32;;;;;;;10.30;4.70;;;;;;;18.50;53.52;97487.48;104228;1271;98770;-67
2023/03/31 09:27:02;;;;;;;7.00;3.30;;;;;;;18.56;52.18;97484.23;104201;1271;108793;-67
2023/03/31 09:29:52;;;;;;;8.40;4.10;;;;;;;18.26;52.96;97480.50;104090;1273;97975;-67
2023/03/31 09:32:22;;;;;;;7.80;3.20;;;;;;;18.06;52.75;97477.52;104258;1265;98083;-68
2023/03/31 09:34:53;;;;;;;12.40;5.20;;;;;;;17.80;54.08;97475.16;104165;1280;113156;-68
2023/03/31 09:37:31;;;;;;;8.90;3.50;;;;;;;17.58;54.81;97469.63;104245;1265;99262;-68
2023/03/31 09:40:06;;;;;;;9.80;3.90;;;;;;;17.48;55.63;97469.73;104208;1269;108138;-68
2023/03/31 09:42:35;;;;;;;6.70;3.40;;;;;;;17.36;55.17;97462.96;104351;1268;99304;-68
2023/03/31 09:45:03;;;;;;;10.90;3.30;;;;;;;17.07;55.31;97460.69;104265;1271;99397;-68
2023/03/31 09:47:50;;;;;;;12.00;4.50;;;;;;;16.77;56.42;97459.01;104166;1281;111970;-68
2023/03/31 09:50:18;;;;;;;11.70;4.50;;;;;;;16.57;56.92;97450.64;104043;1265;99633;-68
2023/03/31 09:52:54;;;;;;;11.60;4.70;;;;;;;16.40;56.89;97449.02;104180;1267;108781;-67
2023/03/31 09:55:27;;;;;;;11.60;4.20;;;;;;;16.25;56.84;97447.55;104103;1274;98064;-69
2023/03/31 09:58:10;;;;;;;8.90;3.60;;;;;;;16.13;57.12;97444.13;104481;1269;97938;-67
2023/03/31 10:01:03;;;;;;;9.90;3.40;;;;;;;16.07;57.31;97440.52;104991;1262;112207;-68
2023/03/31 10:03:55;;;;;;;7.00;3.50;;;;;;;16.05;57.73;97437.90;104936;1260;99445;-68
2023/03/31 10:06:26;;;;;;;3.30;2.00;;;;;;;16.00;57.53;97435.48;104681;1273;107999;-68
2023/03/31 10:09:04;;;;;;;10.60;4.30;;;;;;;16.07;57.91;97428.84;104890;1271;97912;-68
2023/03/31 10:11:32;;;;;;;12.30;4.10;;;;;;;16.53;58.35;97420.82;104656;1257;99311;-68
2023/03/31 10:14:02;;;;;;;8.70;3.50;;;;;;;16.87;56.56;97420.16;104986;1270;112061;-69
2023/03/31 10:16:33;;;;;;;13.30;5.60;;;;;;;16.81;56.47;97418.46;104973;1257;99343;-68
2023/03/31 10:19:18;;;;;;;9.30;4.00;;;;;;;16.78;56.71;97415.14;104939;1263;108799;-69
2023/03/31 10:21:47;;;;;;;10.00;3.60;;;;;;;16.65;56.44;97408.34;104764;1263;99280;-69
2023/03/31 10:24:18;;;;;;;9.90;4.20;;;;;;;16.55;57.08;97411.11;104598;1265;98230;-68
2023/03/31 10:26:49;;;;;;;7.40;3.30;;;;;;;16.52;57.79;97402.66;104641;1266;111330;-69
2023/03/31 10:29:24;;;;;;;11.00;5.20;;;;;;;16.75;58.43;97401.52;104681;1266;98097;-67
2023/03/31 10:31:51;;;;;;;9.40;3.50;;;;;;;17.38;57.38;97392.16;104482;1265;106706;-69
2023/03/31 10:34:20;;;;;;;7.90;4.30;;;;;;;17.71;55.46;97389.16;104811;1270;99164;-68
2023/03/31 10:36:53;;;;;;;9.90;4.30;;;;;;;17.64;54.49;97384.87;104758;1263;97899;-69
2023/03/31 10:39:32;;;;;;;5.00;2.30;;;;;;;17.42;54.90;97389.89;104918;1261;112205;-69
2023/03/31 10:41:59;;;;;;;14.90;6.00;;;;;;;17.26;55.11;97386.61;104582;1263;98001;-75
2023/03/31 10:44:33;;;;;;;10.90;4.40;;;;;;;17.11;55.22;97385.66;104977;1262;108840;-69
2023/03/31 10:47:16;;;;;;;9.90;3.80;;;;;;;16.92;56.12;97380.50;105011;1279;97925;-69
2023/03/31 10:49:47;;;;;;;8.60;3.60;;;;;;;16.84;55.99;97375.17;104910;1263;98703;-69
2023/03/31 10:52:22;;;;;;;11.40;4.20;;;;;;;16.66;55.36;97374.60;104788;1257;111935;-68
2023/03/31 10:54:58;;;;;;;11.20;4.50;;;;;;;16.49;55.25;97372.20;104529;1274;98336;-69
2023/03/31 10:57:53;;;;;;;11.20;4.60;;;;;;;16.46;55.17;97368.95;104894;1276;108603;-69
2023/03/31 11:00:43;;;;;;;9.10;3.70;;;;;;;16.61;55.76;97370.30;104775;1257;97924;-69
2023/03/31 11:03:36;;;;;;;9.30;4.80;;;;;;;16.99;54.86;97368.37;104656;1263;97903;-68
2023/03/31 11:06:21;;;;;;;12.20;4.70;;;;;;;17.38;54.33;97359.03;104770;1262;111366;-68
2023/03/31 11:09:12;;;;;;;10.10;4.20;;;;;;;17.73;54.18;97350.63;104639;1266;98739;-67
2023/03/31 11:12:12;;;;;;;9.60;3.40;;;;;;;17.99;52.34;97352.77;104875;1273;108703;-68
2023/03/31 11:14:51;;;;;;;10.00;3.90;;;;;;;18.18;52.21;97343.92;104817;1277;97896;-68
2023/03/31 11:17:43;;;;;;;8.10;3.50;;;;;;;18.05;50.95;97336.86;104553;1267;99305;-68
2023/03/31 11:20:18;;;;;;;10.50;4.90;;;;;;;17.94;51.78;97333.13;104657;1266;112330;-68
2023/03/31 11:23:16;;;;;;;11.30;4.60;;;;;;;18.33;52.12;97332.89;104812;1262;99218;-68
2023/03/31 11:25:46;;;;;;;11.20;5.40;;;;;;;18.69;50.48;97331.45;104372;1266;108638;-68
2023/03/31 11:28:49;;;;;;;13.40;5.40;;;;;;;19.11;50.46;97322.98;105108;1273;97896;-67
2023/03/31 11:31:58;;;;;;;13.30;5.60;;;;;;;19.63;48.29;97314.10;104215;1276;97970;-67
2023/03/31 11:34:38;;;;;;;17.10;6.70;;;;;;;19.96;47.11;97313.85;104077;1276;111452;-67
2023/03/31 11:37:34;;;;;;;7.90;3.50;;;;;;;20.13;46.85;97309.67;104228;1269;99208;-69
2023/03/31 11:40:28;;;;;;;11.70;4.70;;;;;;;20.06;45.46;97308.70;104342;1269;108632;-68
2023/03/31 11:43:13;;;;;;;4.50;1.80;;;;;;;19.89;46.15;97297.30;104379;1273;98062;-68
2023/03/31 11:45:50;;;;;;;7.40;3.20;;;;;;;20.00;45.93;97287.13;104111;1271;99688;-68
2023/03/31 11:49:04;;;;;;;3.90;2.30;;;;;;;19.92;44.50;97287.34;104457;1268;112139;-69
2023/03/31 11:52:00;;;;;;;8.20;4.10;;;;;;;19.41;45.71;97279.97;103973;1272;98500;-68